Country
Station

 

Weather  for  Tijuana International Airport  -  Mexico    Mexico

  
15 °C (59 °F)
    
 
 

Current METAR for Tijuana International Airport is :

MMTJ 192043Z 28011KT 10SM BKN030 BKN200 15/05 A3011 RMK SLP207 57007 913 8/409 HZY

 

This is a report for Tijuana International Airport - Mexico.
 
The report was made 46 minutes ago, at 20:43 UTC .
The wind was blowing at a speed of 5.7 meters per second (12.7 miles per hour) from west (280°).
 
The temperature was 15 °C (59 °F), with a dew-point at 5 °C (41 °F).
The atmospheric pressure was 1020 hPa (30.11 inHg).
The relative humidity was 51.2%.
 
There were broken clouds at a height of 914 meters (3000 feet) and broken clouds at a height of 6096 meters (20000 feet).
 
The overall visibility was 16.1 kilometers (10.0 miles).
 

 
 
 
 

Country :   A   B   C   D   E   F   G   H   I   J   K   L   M   N   O   P   Q   R   S   T   U   V   W   Y   Z

 

Site Info  |  Disclaimer  |  Credits  |  Privacy
Contact us  |  Add to favorites
© 2013-2018 METARs - All rights reserved